Terminal Aerodrome Forecast
Issued by NWS

Home | Current Version | Previous Version | Text Only | Print | Product List | Glossary On
Versions: 1 2 3 4 5 6 7 8 9 10 11 12
000
FTUS42 TJSJ 291700
TAFNCM
TAF
TNCM 291739Z 2918/3018 13008KT P6SM VCSH SCT022 BKN045
     FM300200 06006KT P6SM FEW018 SCT035
     FM300800 07005KT P6SM VCSH SCT018 SCT028=

USA.gov is the U.S. government's official web portal to all federal, state and local government web resources and services.